createdAt,value
2023-10-26T00:01:18.760Z,13.10
2023-10-26T00:03:47.039Z,11.30
2023-10-26T00:06:15.303Z,15.00
2023-10-26T00:08:43.434Z,18.80
2023-10-26T00:11:11.678Z,14.10
2023-10-26T00:13:39.581Z,15.00
2023-10-26T00:16:07.670Z,15.20
2023-10-26T00:18:35.754Z,16.60
2023-10-26T00:21:03.970Z,17.30
2023-10-26T00:23:31.945Z,17.60
2023-10-26T00:25:59.839Z,16.80
2023-10-26T00:28:27.731Z,12.60
2023-10-26T00:30:55.784Z,15.70
2023-10-26T00:33:23.892Z,12.80
2023-10-26T00:35:54.300Z,13.10
2023-10-26T00:38:22.415Z,14.40
2023-10-26T00:40:50.363Z,14.40
2023-10-26T00:43:23.171Z,13.30
2023-10-26T00:45:53.400Z,16.60
2023-10-26T00:48:22.350Z,13.70
2023-10-26T00:50:50.836Z,14.30
2023-10-26T00:53:21.325Z,18.20
2023-10-26T00:55:52.462Z,15.20
2023-10-26T00:58:22.583Z,18.50
2023-10-26T01:00:50.889Z,13.60
2023-10-26T01:03:19.994Z,14.40
2023-10-26T01:05:48.760Z,15.70
2023-10-26T01:08:17.056Z,13.60
2023-10-26T01:10:46.469Z,13.00
2023-10-26T01:13:14.981Z,16.70
2023-10-26T01:15:43.199Z,17.80
2023-10-26T01:18:11.314Z,12.90
2023-10-26T01:20:42.476Z,15.30
2023-10-26T01:23:11.068Z,13.80
2023-10-26T01:25:39.115Z,13.30
2023-10-26T01:28:08.414Z,16.60
2023-10-26T01:30:36.369Z,14.50
2023-10-26T01:33:04.450Z,15.00
2023-10-26T01:35:42.043Z,14.30
2023-10-26T01:38:10.223Z,14.80
2023-10-26T01:40:38.298Z,15.30
2023-10-26T01:43:06.770Z,14.10
2023-10-26T01:45:34.979Z,13.70
2023-10-26T01:48:06.354Z,18.80
2023-10-26T01:50:34.538Z,15.20
2023-10-26T01:53:02.545Z,15.20
2023-10-26T01:55:30.614Z,18.70
2023-10-26T01:57:59.172Z,16.60
2023-10-26T02:00:27.300Z,26.30
2023-10-26T02:02:57.244Z,15.10
2023-10-26T02:05:26.458Z,16.20
2023-10-26T02:07:54.643Z,14.10
2023-10-26T02:10:25.104Z,17.00
2023-10-26T02:12:53.218Z,14.30
2023-10-26T02:15:21.499Z,14.40
2023-10-26T02:17:49.907Z,14.80
2023-10-26T02:20:18.201Z,14.80
2023-10-26T02:22:48.005Z,18.30
2023-10-26T02:25:16.664Z,18.60
2023-10-26T02:27:44.816Z,16.30
2023-10-26T02:30:13.578Z,15.80
2023-10-26T02:32:41.965Z,16.70
2023-10-26T02:35:10.285Z,16.10
2023-10-26T02:37:41.756Z,15.00
2023-10-26T02:40:10.830Z,15.00
2023-10-26T02:42:40.346Z,15.00
2023-10-26T02:45:10.035Z,15.20
2023-10-26T02:47:39.144Z,18.70
2023-10-26T02:50:07.951Z,17.90
2023-10-26T02:52:36.760Z,16.40
2023-10-26T02:55:06.651Z,16.80
2023-10-26T02:57:34.593Z,16.60
2023-10-26T03:00:02.761Z,16.60
2023-10-26T03:02:30.806Z,17.10
2023-10-26T03:04:58.802Z,17.10
2023-10-26T03:07:26.749Z,17.70
2023-10-26T03:09:54.831Z,15.40
2023-10-26T03:12:23.753Z,16.60
2023-10-26T03:14:51.668Z,18.90
2023-10-26T03:17:19.718Z,16.00
2023-10-26T03:19:47.662Z,18.10
2023-10-26T03:22:15.850Z,18.10
2023-10-26T03:24:44.050Z,15.70
2023-10-26T03:27:12.216Z,15.50
2023-10-26T03:29:40.436Z,17.00
2023-10-26T03:32:08.403Z,16.00
2023-10-26T03:34:36.465Z,15.40
2023-10-26T03:37:05.140Z,19.20
2023-10-26T03:39:33.293Z,17.10
2023-10-26T03:42:01.538Z,18.50
2023-10-26T03:44:29.759Z,20.60
2023-10-26T03:46:57.785Z,20.10
2023-10-26T03:49:26.362Z,20.80
2023-10-26T03:51:55.375Z,19.40
2023-10-26T03:54:23.541Z,20.30
2023-10-26T03:56:51.484Z,18.70
2023-10-26T03:59:19.464Z,20.40
2023-10-26T04:01:47.568Z,19.90
2023-10-26T04:04:15.559Z,18.20
2023-10-26T04:06:43.702Z,16.10
2023-10-26T04:09:11.837Z,17.60
2023-10-26T04:11:39.905Z,16.90
2023-10-26T04:14:08.818Z,17.90
2023-10-26T04:16:36.815Z,18.20
2023-10-26T04:19:04.899Z,17.90
2023-10-26T04:21:33.043Z,15.00
2023-10-26T04:24:01.302Z,18.40
2023-10-26T04:26:29.537Z,13.70
2023-10-26T04:28:57.718Z,16.00
2023-10-26T04:31:26.326Z,17.80
2023-10-26T04:33:54.436Z,16.40
2023-10-26T04:36:23.019Z,15.10
2023-10-26T04:38:51.684Z,14.70
2023-10-26T04:41:19.904Z,18.00
2023-10-26T04:43:47.893Z,19.70
2023-10-26T04:46:15.984Z,18.30
2023-10-26T04:48:44.215Z,18.90
2023-10-26T04:51:12.591Z,20.20
2023-10-26T04:53:40.634Z,15.40
2023-10-26T04:56:11.757Z,19.80
2023-10-26T04:58:39.922Z,21.00
2023-10-26T05:01:08.000Z,23.20
2023-10-26T05:03:36.174Z,21.20
2023-10-26T05:06:04.479Z,22.20
2023-10-26T05:08:32.647Z,20.90
2023-10-26T05:11:00.936Z,18.20
2023-10-26T05:13:29.567Z,22.30
2023-10-26T05:15:57.680Z,22.70
2023-10-26T05:18:25.853Z,25.20
2023-10-26T05:20:53.932Z,22.10
2023-10-26T05:23:21.973Z,22.00
2023-10-26T05:25:50.176Z,24.30
2023-10-26T05:28:18.396Z,26.00
2023-10-26T05:30:46.465Z,21.70
2023-10-26T05:33:16.695Z,26.10
2023-10-26T05:35:45.906Z,31.50
2023-10-26T05:38:16.041Z,24.20
2023-10-26T05:40:55.612Z,21.10
2023-10-26T05:43:24.600Z,25.60
2023-10-26T05:45:53.742Z,29.00
2023-10-26T05:48:24.565Z,26.60
2023-10-26T05:50:52.513Z,26.40
2023-10-26T05:53:20.732Z,26.50
2023-10-26T05:56:00.090Z,22.20
2023-10-26T05:58:28.605Z,26.80
2023-10-26T06:00:57.013Z,24.20
2023-10-26T06:03:25.435Z,24.80
2023-10-26T06:05:59.655Z,26.10
2023-10-26T06:08:28.164Z,25.10
2023-10-26T06:10:56.310Z,27.70
2023-10-26T06:13:24.223Z,23.80
2023-10-26T06:15:52.281Z,21.30
2023-10-26T06:18:20.931Z,21.50
2023-10-26T06:21:02.467Z,22.00
2023-10-26T06:23:30.690Z,23.20
2023-10-26T06:25:59.654Z,22.10
2023-10-26T06:28:28.685Z,23.80
2023-10-26T06:31:08.237Z,23.00
2023-10-26T06:33:36.133Z,20.30
2023-10-26T06:36:04.696Z,19.90
2023-10-26T06:38:32.779Z,19.70
2023-10-26T06:41:00.737Z,19.20
2023-10-26T06:43:30.530Z,22.40
2023-10-26T06:46:00.494Z,21.40
2023-10-26T06:48:28.753Z,19.30
2023-10-26T06:51:02.281Z,19.40
2023-10-26T06:53:30.701Z,17.60
2023-10-26T06:55:59.753Z,16.70
2023-10-26T06:58:28.915Z,17.70
2023-10-26T07:00:57.666Z,16.10
2023-10-26T07:03:26.028Z,17.40
2023-10-26T07:05:54.794Z,21.10
2023-10-26T07:08:22.971Z,19.70
2023-10-26T07:10:51.054Z,17.80
2023-10-26T07:13:19.768Z,19.30
2023-10-26T07:15:48.326Z,17.20
2023-10-26T07:18:19.504Z,16.80
2023-10-26T07:20:50.528Z,17.40
2023-10-26T07:23:19.586Z,15.80
2023-10-26T07:25:48.709Z,26.80
2023-10-26T07:28:18.116Z,27.40
2023-10-26T07:30:51.922Z,25.20
2023-10-26T07:35:54.109Z,27.60
2023-10-26T07:38:35.654Z,27.90
2023-10-26T07:41:07.012Z,27.50
2023-10-26T07:43:36.220Z,24.80
2023-10-26T07:46:05.001Z,25.80
2023-10-26T07:48:33.259Z,28.40
2023-10-26T07:51:01.256Z,33.70
2023-10-26T07:53:32.458Z,37.80
2023-10-26T07:56:00.636Z,32.30
2023-10-26T07:58:31.635Z,30.80
2023-10-26T08:01:00.443Z,29.20
2023-10-26T08:03:29.267Z,34.60
2023-10-26T08:06:04.011Z,27.00
2023-10-26T08:08:32.091Z,32.50
2023-10-26T08:11:09.594Z,28.60
2023-10-26T08:13:37.609Z,26.30
2023-10-26T08:16:34.415Z,27.50
2023-10-26T08:18:54.512Z,28.00
2023-10-26T08:21:22.610Z,28.90
2023-10-26T08:23:50.765Z,28.60
2023-10-26T08:26:18.814Z,31.00
2023-10-26T08:28:47.098Z,27.90
2023-10-26T08:31:15.039Z,30.20
2023-10-26T08:33:43.274Z,36.50
2023-10-26T08:36:11.397Z,28.80
2023-10-26T08:38:39.392Z,28.20
2023-10-26T08:41:12.373Z,26.30
2023-10-26T08:43:40.891Z,31.00
2023-10-26T08:46:11.855Z,38.60
2023-10-26T08:48:42.463Z,29.20
2023-10-26T08:51:11.457Z,31.60
2023-10-26T08:53:41.204Z,31.10
2023-10-26T08:56:11.170Z,31.00
2023-10-26T08:58:39.648Z,31.90
2023-10-26T09:01:07.931Z,34.90
2023-10-26T09:03:36.448Z,32.50
2023-10-26T09:06:04.670Z,29.20
2023-10-26T09:08:32.788Z,38.00
2023-10-26T09:11:02.606Z,30.90
2023-10-26T09:13:30.921Z,34.20
2023-10-26T09:16:00.583Z,36.60
2023-10-26T09:18:29.138Z,43.00
2023-10-26T09:21:06.104Z,37.30
2023-10-26T09:23:36.624Z,35.30
2023-10-26T09:26:09.289Z,37.90
2023-10-26T09:28:57.401Z,33.10
2023-10-26T09:31:26.431Z,37.10
2023-10-26T09:33:54.541Z,32.30
2023-10-26T09:36:23.462Z,30.00
2023-10-26T09:38:52.122Z,29.00
2023-10-26T09:41:21.264Z,25.60
2023-10-26T09:43:49.543Z,29.50
2023-10-26T09:46:21.565Z,28.90
2023-10-26T09:48:50.562Z,32.20
2023-10-26T09:51:21.366Z,31.00
2023-10-26T09:53:50.232Z,26.10
2023-10-26T09:56:26.348Z,27.90
2023-10-26T09:58:54.994Z,29.70
2023-10-26T10:01:37.387Z,32.10
2023-10-26T10:04:06.880Z,28.20
2023-10-26T10:06:53.740Z,30.30
2023-10-26T10:09:26.483Z,26.10
2023-10-26T10:12:11.051Z,33.10
2023-10-26T10:15:36.256Z,32.60
2023-10-26T10:17:58.665Z,32.40
2023-10-26T10:20:28.755Z,32.00
2023-10-26T10:22:59.794Z,28.80
2023-10-26T10:25:51.216Z,32.30
2023-10-26T10:28:19.773Z,31.90
2023-10-26T10:31:00.617Z,37.60
2023-10-26T10:33:29.788Z,36.70
2023-10-26T10:36:09.515Z,39.00
2023-10-26T10:38:37.629Z,44.40
2023-10-26T10:41:13.369Z,45.10
2023-10-26T10:43:47.608Z,40.20
2023-10-26T10:46:17.612Z,40.90
2023-10-26T10:49:05.014Z,38.30
2023-10-26T10:51:43.482Z,44.00
2023-10-26T10:54:24.099Z,42.00
2023-10-26T10:56:58.656Z,46.30
2023-10-26T10:59:28.452Z,43.30
2023-10-26T11:02:10.910Z,38.80
2023-10-26T11:05:05.241Z,39.30
2023-10-26T11:07:37.957Z,46.60
2023-10-26T11:10:06.559Z,37.60
2023-10-26T11:12:35.030Z,48.50
2023-10-26T11:15:05.090Z,39.70
2023-10-26T11:17:33.432Z,35.90
2023-10-26T11:20:01.435Z,34.70
2023-10-26T11:22:29.862Z,43.80
2023-10-26T11:24:57.833Z,40.50
2023-10-26T11:27:26.035Z,36.40
2023-10-26T11:30:06.940Z,32.80
2023-10-26T11:32:35.568Z,37.90
2023-10-26T11:35:07.447Z,38.70
2023-10-26T11:37:37.620Z,29.30
2023-10-26T11:40:10.234Z,30.60
2023-10-26T11:42:50.717Z,24.80
2023-10-26T11:45:24.050Z,30.70
2023-10-26T11:47:54.808Z,28.50
2023-10-26T11:50:26.827Z,28.20
2023-10-26T11:52:57.198Z,23.90
2023-10-26T11:55:26.426Z,25.20
2023-10-26T11:57:58.301Z,24.90
2023-10-26T12:00:27.772Z,28.60
2023-10-26T12:02:57.571Z,24.80
2023-10-26T12:05:26.678Z,25.00
2023-10-26T12:07:55.258Z,21.20
2023-10-26T12:10:24.770Z,22.50
2023-10-26T12:12:54.314Z,19.80
2023-10-26T12:15:22.583Z,22.60
2023-10-26T12:17:50.856Z,23.10
2023-10-26T12:20:19.458Z,24.60
2023-10-26T12:22:49.865Z,27.20
2023-10-26T12:25:18.075Z,23.80
2023-10-26T12:28:20.507Z,23.00
2023-10-26T12:30:37.214Z,22.00
2023-10-26T12:33:05.492Z,19.00
2023-10-26T12:35:33.574Z,25.20
2023-10-26T12:38:01.497Z,22.60
2023-10-26T12:40:29.568Z,20.20
2023-10-26T12:42:59.371Z,22.10
2023-10-26T12:45:27.493Z,27.00
2023-10-26T12:47:55.675Z,24.60
2023-10-26T12:50:23.696Z,21.50
2023-10-26T12:52:51.735Z,24.20
2023-10-26T12:55:22.137Z,19.40
2023-10-26T12:57:51.025Z,21.00
2023-10-26T13:00:20.187Z,24.50
2023-10-26T13:02:48.236Z,26.30
2023-10-26T13:05:16.471Z,34.00
2023-10-26T13:07:44.409Z,31.20
2023-10-26T13:10:12.409Z,31.70
2023-10-26T13:12:40.792Z,35.40
2023-10-26T13:15:08.999Z,39.00
2023-10-26T13:17:36.954Z,37.00
2023-10-26T13:20:05.675Z,44.70
2023-10-26T13:22:33.941Z,38.90
2023-10-26T13:25:01.990Z,51.70
2023-10-26T13:27:29.997Z,41.20
2023-10-26T13:29:58.105Z,42.10
2023-10-26T13:32:28.017Z,39.60
2023-10-26T13:34:56.200Z,38.10
2023-10-26T13:37:24.380Z,36.20
2023-10-26T13:39:52.483Z,33.90
2023-10-26T13:42:20.510Z,36.80
2023-10-26T13:44:48.673Z,35.70
2023-10-26T13:47:16.620Z,32.70
2023-10-26T13:49:44.856Z,28.70
2023-10-26T13:52:13.003Z,29.30
2023-10-26T13:54:41.110Z,32.70
2023-10-26T13:57:09.767Z,32.60
2023-10-26T13:59:38.878Z,31.50
2023-10-26T14:02:07.444Z,29.50
2023-10-26T14:04:37.327Z,40.40
2023-10-26T14:07:06.476Z,36.90
2023-10-26T14:09:34.679Z,39.80
2023-10-26T14:12:02.943Z,33.60
2023-10-26T14:14:31.417Z,34.10
2023-10-26T14:16:59.558Z,39.70
2023-10-26T14:19:28.171Z,40.30
2023-10-26T14:21:56.425Z,35.20
2023-10-26T14:24:24.363Z,44.10
2023-10-26T14:26:52.399Z,36.90
2023-10-26T14:29:20.357Z,35.30
2023-10-26T14:31:48.450Z,33.80
2023-10-26T14:34:16.633Z,35.10
2023-10-26T14:36:44.479Z,30.00
2023-10-26T14:39:12.507Z,28.70
2023-10-26T14:41:42.081Z,34.40
2023-10-26T14:44:10.363Z,42.50
2023-10-26T14:46:38.419Z,37.30
2023-10-26T14:49:06.859Z,31.40
2023-10-26T14:51:35.692Z,25.30
2023-10-26T14:54:03.831Z,33.10
2023-10-26T14:56:31.847Z,23.70
2023-10-26T14:58:59.812Z,25.60
2023-10-26T15:01:28.157Z,20.70
2023-10-26T15:03:56.879Z,23.70
2023-10-26T15:06:26.345Z,15.50
2023-10-26T15:08:54.942Z,17.80
2023-10-26T15:11:25.265Z,14.70
2023-10-26T15:13:56.269Z,19.10
2023-10-26T15:16:24.374Z,16.80
2023-10-26T15:18:52.369Z,20.30
2023-10-26T15:21:20.460Z,23.40
2023-10-26T15:23:48.522Z,20.20
2023-10-26T15:26:16.620Z,17.20
2023-10-26T15:28:44.650Z,24.00
2023-10-26T15:31:12.973Z,27.80
2023-10-26T15:33:41.123Z,19.80
2023-10-26T15:36:09.253Z,17.90
2023-10-26T15:38:42.255Z,17.90
2023-10-26T15:41:11.635Z,14.20
2023-10-26T15:43:39.772Z,13.60
2023-10-26T15:46:07.797Z,13.60
2023-10-26T15:49:33.793Z,11.60
2023-10-26T15:51:24.126Z,13.70
2023-10-26T15:53:52.020Z,18.50
2023-10-26T15:56:20.230Z,17.00
2023-10-26T15:58:52.209Z,13.30
2023-10-26T16:01:20.608Z,12.60
2023-10-26T16:03:48.697Z,15.50
2023-10-26T16:06:20.104Z,13.60
2023-10-26T16:08:49.590Z,11.30
2023-10-26T16:11:17.586Z,12.60
2023-10-26T16:13:48.910Z,11.10
2023-10-26T16:16:17.020Z,14.20
2023-10-26T16:18:47.932Z,11.90
2023-10-26T16:21:16.847Z,16.60
2023-10-26T16:23:44.943Z,13.20
2023-10-26T16:26:12.939Z,14.70
2023-10-26T16:28:41.089Z,13.00
2023-10-26T16:31:09.124Z,11.00
2023-10-26T16:33:38.029Z,11.30
2023-10-26T16:36:06.603Z,11.80
2023-10-26T16:38:34.469Z,11.50
2023-10-26T16:41:02.338Z,12.50
2023-10-26T16:43:30.331Z,14.20
2023-10-26T16:46:01.916Z,12.30
2023-10-26T16:48:30.054Z,13.50
2023-10-26T16:50:58.007Z,12.00
2023-10-26T16:53:31.364Z,11.50
2023-10-26T16:56:02.091Z,11.30
2023-10-26T16:58:32.920Z,9.50
2023-10-26T17:01:04.476Z,8.10
2023-10-26T17:03:32.595Z,10.30
2023-10-26T17:06:00.682Z,13.10
2023-10-26T17:08:32.912Z,8.00
2023-10-26T17:11:00.977Z,11.20
2023-10-26T17:13:29.113Z,14.10
2023-10-26T17:15:57.131Z,14.40
2023-10-26T17:18:25.176Z,15.30
2023-10-26T17:20:59.304Z,15.40
2023-10-26T17:23:27.393Z,15.00
2023-10-26T17:25:55.286Z,14.80
2023-10-26T17:28:23.291Z,14.90
2023-10-26T17:30:51.271Z,18.00
2023-10-26T17:33:21.225Z,15.80
2023-10-26T17:35:52.414Z,14.30
2023-10-26T17:38:20.401Z,15.50
2023-10-26T17:40:49.101Z,18.20
2023-10-26T17:43:20.487Z,16.10
2023-10-26T17:45:57.579Z,16.00
2023-10-26T17:48:33.874Z,16.70
2023-10-26T17:51:04.782Z,14.40
2023-10-26T17:53:35.321Z,13.70
2023-10-26T17:56:03.925Z,13.30
2023-10-26T17:58:31.821Z,11.10
2023-10-26T18:01:08.884Z,10.30
2023-10-26T18:03:43.223Z,9.50
2023-10-26T18:06:16.600Z,6.40
2023-10-26T18:08:44.622Z,6.50
2023-10-26T18:11:12.677Z,8.20
2023-10-26T18:13:40.648Z,6.10
2023-10-26T18:16:13.670Z,8.40
2023-10-26T18:18:45.809Z,8.00
2023-10-26T18:21:14.553Z,6.30
2023-10-26T18:23:45.421Z,7.90
2023-10-26T18:26:15.339Z,8.70
2023-10-26T18:28:47.575Z,7.80
2023-10-26T18:31:18.759Z,7.00
2023-10-26T18:33:53.065Z,8.20
2023-10-26T18:36:29.758Z,8.00
2023-10-26T18:39:12.712Z,6.50
2023-10-26T18:41:45.597Z,8.30
2023-10-26T18:44:16.645Z,13.40
2023-10-26T18:46:47.165Z,6.90
2023-10-26T18:49:15.305Z,11.50
2023-10-26T18:51:43.231Z,9.00
2023-10-26T18:54:11.212Z,7.80
2023-10-26T18:56:39.139Z,6.80
2023-10-26T18:59:08.122Z,7.60
2023-10-26T19:01:36.085Z,10.10
2023-10-26T19:04:04.254Z,12.20
2023-10-26T19:06:32.452Z,13.70
2023-10-26T19:09:00.401Z,13.80
2023-10-26T19:11:29.712Z,14.40
2023-10-26T19:13:57.990Z,16.80
2023-10-26T19:16:26.340Z,17.00
2023-10-26T19:18:54.437Z,17.30
2023-10-26T19:21:24.225Z,20.30
2023-10-26T19:23:52.260Z,25.20
2023-10-26T19:26:20.486Z,23.40
2023-10-26T19:28:48.489Z,22.60
2023-10-26T19:31:16.962Z,25.30
2023-10-26T19:33:47.930Z,23.30
2023-10-26T19:36:18.626Z,24.50
2023-10-26T19:38:46.595Z,31.60
2023-10-26T19:41:17.431Z,31.20
2023-10-26T19:43:45.529Z,24.30
2023-10-26T19:46:14.293Z,21.00
2023-10-26T19:48:42.506Z,18.30
2023-10-26T19:51:10.477Z,22.00
2023-10-26T19:53:38.595Z,18.50
2023-10-26T19:56:06.914Z,16.90
2023-10-26T19:58:34.792Z,14.60
2023-10-26T20:01:04.662Z,18.50
2023-10-26T20:03:33.097Z,16.20
2023-10-26T20:06:02.365Z,17.90
2023-10-26T20:08:31.969Z,21.30
2023-10-26T20:11:00.695Z,18.70
2023-10-26T20:13:28.810Z,17.50
2023-10-26T20:15:57.467Z,16.70
2023-10-26T20:18:25.390Z,16.30
2023-10-26T20:20:53.926Z,17.10
2023-10-26T20:23:21.968Z,18.30
2023-10-26T20:25:50.451Z,15.40
2023-10-26T20:28:18.805Z,17.20
2023-10-26T20:30:46.790Z,15.00
2023-10-26T20:33:14.785Z,19.70
2023-10-26T20:35:48.643Z,19.00
2023-10-26T20:38:16.738Z,17.00
2023-10-26T20:40:44.691Z,16.50
2023-10-26T20:43:13.173Z,13.60
2023-10-26T20:45:47.547Z,10.80
2023-10-26T20:48:15.541Z,11.30
2023-10-26T20:50:43.574Z,14.80
2023-10-26T20:53:11.690Z,18.40
2023-10-26T20:55:39.728Z,14.90
2023-10-26T20:58:07.847Z,15.80
2023-10-26T21:00:35.960Z,14.10
2023-10-26T21:03:04.090Z,17.50
2023-10-26T21:05:32.496Z,15.60
2023-10-26T21:08:00.505Z,14.70
2023-10-26T21:10:28.506Z,15.20
2023-10-26T21:12:56.681Z,15.00
2023-10-26T21:15:24.917Z,17.50
2023-10-26T21:17:53.033Z,18.00
2023-10-26T21:20:21.440Z,21.40
2023-10-26T21:22:49.416Z,24.10
2023-10-26T21:25:17.743Z,18.40
2023-10-26T21:27:45.868Z,19.10
2023-10-26T21:30:16.467Z,21.10
2023-10-26T21:32:44.600Z,15.10
2023-10-26T21:35:12.512Z,20.30
2023-10-26T21:37:40.478Z,21.60
2023-10-26T21:40:09.389Z,20.60
2023-10-26T21:42:37.539Z,21.20
2023-10-26T21:45:08.109Z,20.80
2023-10-26T21:47:36.319Z,19.90
2023-10-26T21:50:05.184Z,21.20
2023-10-26T21:52:33.339Z,23.40
2023-10-26T21:55:01.243Z,21.80
2023-10-26T21:57:29.153Z,25.00
2023-10-26T21:59:57.171Z,22.00
2023-10-26T22:02:26.113Z,24.70
2023-10-26T22:04:54.185Z,25.60
2023-10-26T22:07:22.320Z,26.30
2023-10-26T22:09:55.486Z,26.10
2023-10-26T22:12:23.998Z,25.90
2023-10-26T22:14:52.064Z,21.40
2023-10-26T22:17:20.180Z,21.60
2023-10-26T22:19:51.613Z,24.50
2023-10-26T22:22:19.895Z,21.30
2023-10-26T22:24:48.190Z,21.40
2023-10-26T22:27:16.351Z,19.20
2023-10-26T22:29:44.535Z,19.80
2023-10-26T22:32:12.968Z,19.30
2023-10-26T22:34:41.403Z,17.60
2023-10-26T22:37:09.436Z,19.60
2023-10-26T22:39:37.418Z,22.00
2023-10-26T22:42:05.599Z,20.50
2023-10-26T22:44:33.647Z,23.70
2023-10-26T22:47:01.606Z,21.70
2023-10-26T22:49:29.574Z,20.40
2023-10-26T22:51:57.647Z,19.80
2023-10-26T22:54:25.602Z,21.90
2023-10-26T22:56:53.526Z,20.40
2023-10-26T22:59:21.882Z,22.60
2023-10-26T23:01:51.181Z,22.90
2023-10-26T23:04:19.500Z,23.20
2023-10-26T23:06:48.122Z,23.10
2023-10-26T23:09:17.242Z,21.60
2023-10-26T23:11:45.364Z,22.10
2023-10-26T23:14:13.416Z,23.20
2023-10-26T23:16:41.371Z,19.20
2023-10-26T23:19:09.479Z,21.40
2023-10-26T23:21:37.565Z,23.30
2023-10-26T23:24:06.267Z,25.00
2023-10-26T23:26:35.320Z,23.50
2023-10-26T23:29:04.788Z,17.30
2023-10-26T23:31:34.213Z,23.10
2023-10-26T23:34:02.269Z,22.10
2023-10-26T23:36:30.300Z,21.70
2023-10-26T23:38:58.372Z,22.40
2023-10-26T23:41:26.312Z,27.60
2023-10-26T23:43:54.185Z,24.50
2023-10-26T23:46:22.176Z,19.50
2023-10-26T23:48:50.199Z,23.50
2023-10-26T23:51:19.183Z,28.50
2023-10-26T23:53:47.260Z,24.80
2023-10-26T23:56:15.406Z,26.20
2023-10-26T23:58:43.856Z,25.00
